sensor_id;sensor_type;location;lat;lon;timestamp;P1;durP1;ratioP1;P2;durP2;ratioP2
63874;SDS011;51595;24.180;-110.296;2023-07-13T03:10:03;3.03;;;2.50;;
63874;SDS011;51595;24.180;-110.296;2023-07-13T03:12:39;4.18;;;2.53;;
63874;SDS011;51595;24.180;-110.296;2023-07-13T03:15:08;4.63;;;3.00;;
63874;SDS011;51595;24.180;-110.296;2023-07-13T03:17:35;3.53;;;2.38;;
63874;SDS011;51595;24.180;-110.296;2023-07-13T03:20:01;2.55;;;1.98;;
63874;SDS011;51595;24.180;-110.296;2023-07-13T03:22:28;6.75;;;2.30;;
63874;SDS011;51595;24.180;-110.296;2023-07-13T03:24:55;4.15;;;2.08;;
63874;SDS011;51595;24.180;-110.296;2023-07-13T03:27:22;7.53;;;2.28;;
63874;SDS011;51595;24.180;-110.296;2023-07-13T03:29:48;4.95;;;2.20;;
63874;SDS011;51595;24.180;-110.296;2023-07-13T03:32:14;5.55;;;2.25;;
63874;SDS011;51595;24.180;-110.296;2023-07-13T03:34:41;3.65;;;2.00;;
63874;SDS011;51595;24.180;-110.296;2023-07-13T03:37:07;3.63;;;2.10;;
63874;SDS011;51595;24.180;-110.296;2023-07-13T03:39:34;3.35;;;2.33;;
63874;SDS011;51595;24.180;-110.296;2023-07-13T03:42:00;3.47;;;2.42;;
63874;SDS011;51595;24.180;-110.296;2023-07-13T03:44:27;3.08;;;1.90;;
63874;SDS011;51595;24.180;-110.296;2023-07-13T03:46:54;3.50;;;2.22;;
63874;SDS011;51595;24.180;-110.296;2023-07-13T03:49:20;3.85;;;2.30;;
63874;SDS011;51595;24.180;-110.296;2023-07-13T03:51:48;4.57;;;1.80;;
63874;SDS011;51595;24.180;-110.296;2023-07-13T03:54:18;2.08;;;1.70;;
63874;SDS011;51595;24.180;-110.296;2023-07-13T03:56:44;2.22;;;1.60;;
63874;SDS011;51595;24.180;-110.296;2023-07-13T03:59:11;5.85;;;1.42;;
63874;SDS011;51595;24.180;-110.296;2023-07-13T04:01:37;2.22;;;1.35;;
63874;SDS011;51595;24.180;-110.296;2023-07-13T04:04:04;5.82;;;1.70;;
63874;SDS011;51595;24.180;-110.296;2023-07-13T04:06:32;3.00;;;1.40;;
63874;SDS011;51595;24.180;-110.296;2023-07-13T04:08:59;7.78;;;1.80;;
63874;SDS011;51595;24.180;-110.296;2023-07-13T04:11:28;1.70;;;1.30;;
63874;SDS011;51595;24.180;-110.296;2023-07-13T04:13:57;4.63;;;1.65;;
63874;SDS011;51595;24.180;-110.296;2023-07-13T04:16:24;3.75;;;1.52;;
63874;SDS011;51595;24.180;-110.296;2023-07-13T04:18:52;2.10;;;1.15;;
63874;SDS011;51595;24.180;-110.296;2023-07-13T04:21:21;1.15;;;1.05;;
63874;SDS011;51595;24.180;-110.296;2023-07-13T04:23:47;2.03;;;1.10;;
63874;SDS011;51595;24.180;-110.296;2023-07-13T04:26:14;2.45;;;1.10;;
63874;SDS011;51595;24.180;-110.296;2023-07-13T04:28:40;4.72;;;1.48;;
63874;SDS011;51595;24.180;-110.296;2023-07-13T04:31:07;1.67;;;1.17;;
63874;SDS011;51595;24.180;-110.296;2023-07-13T04:33:33;2.65;;;1.13;;
63874;SDS011;51595;24.180;-110.296;2023-07-13T04:36:00;2.35;;;1.50;;
63874;SDS011;51595;24.180;-110.296;2023-07-13T04:38:30;5.68;;;1.40;;
63874;SDS011;51595;24.180;-110.296;2023-07-13T04:40:59;0.85;;;0.85;;
63874;SDS011;51595;24.180;-110.296;2023-07-13T04:43:28;1.35;;;1.10;;
63874;SDS011;51595;24.180;-110.296;2023-07-13T04:45:55;0.70;;;0.70;;
63874;SDS011;51595;24.180;-110.296;2023-07-13T04:48:22;1.02;;;0.93;;
63874;SDS011;51595;24.180;-110.296;2023-07-13T04:50:56;3.10;;;1.17;;
63874;SDS011;51595;24.180;-110.296;2023-07-13T04:53:25;2.70;;;1.23;;
63874;SDS011;51595;24.180;-110.296;2023-07-13T04:55:52;2.47;;;1.25;;
63874;SDS011;51595;24.180;-110.296;2023-07-13T04:58:19;1.10;;;1.00;;
63874;SDS011;51595;24.180;-110.296;2023-07-13T05:00:46;2.85;;;1.13;;
63874;SDS011;51595;24.180;-110.296;2023-07-13T05:03:13;0.95;;;0.90;;
63874;SDS011;51595;24.180;-110.296;2023-07-13T05:05:40;2.13;;;1.00;;
63874;SDS011;51595;24.180;-110.296;2023-07-13T05:08:06;2.80;;;1.30;;
63874;SDS011;51595;24.180;-110.296;2023-07-13T05:10:33;0.90;;;0.73;;
63874;SDS011;51595;24.180;-110.296;2023-07-13T05:13:00;3.63;;;1.30;;
63874;SDS011;51595;24.180;-110.296;2023-07-13T05:15:27;4.35;;;0.98;;
63874;SDS011;51595;24.180;-110.296;2023-07-13T05:17:53;0.93;;;0.93;;
63874;SDS011;51595;24.180;-110.296;2023-07-13T05:20:20;3.78;;;1.50;;
63874;SDS011;51595;24.180;-110.296;2023-07-13T05:22:46;2.53;;;1.40;;
63874;SDS011;51595;24.180;-110.296;2023-07-13T05:25:13;4.10;;;1.15;;
63874;SDS011;51595;24.180;-110.296;2023-07-13T05:27:41;2.13;;;1.30;;
63874;SDS011;51595;24.180;-110.296;2023-07-13T05:30:10;2.33;;;0.65;;
63874;SDS011;51595;24.180;-110.296;2023-07-13T05:32:37;0.77;;;0.77;;
63874;SDS011;51595;24.180;-110.296;2023-07-13T05:35:04;1.17;;;0.90;;
63874;SDS011;51595;24.180;-110.296;2023-07-13T05:37:31;5.30;;;1.23;;
63874;SDS011;51595;24.180;-110.296;2023-07-13T05:39:57;2.47;;;0.80;;
63874;SDS011;51595;24.180;-110.296;2023-07-13T05:42:24;3.92;;;1.00;;
63874;SDS011;51595;24.180;-110.296;2023-07-13T05:44:51;1.67;;;0.90;;
63874;SDS011;51595;24.180;-110.296;2023-07-13T05:47:17;1.23;;;1.00;;
63874;SDS011;51595;24.180;-110.296;2023-07-13T05:49:45;0.70;;;0.70;;
63874;SDS011;51595;24.180;-110.296;2023-07-13T05:52:12;1.10;;;1.00;;
63874;SDS011;51595;24.180;-110.296;2023-07-13T05:54:38;0.95;;;0.88;;
63874;SDS011;51595;24.180;-110.296;2023-07-13T05:57:04;1.00;;;0.90;;
63874;SDS011;51595;24.180;-110.296;2023-07-13T05:59:31;2.15;;;1.30;;
63874;SDS011;51595;24.180;-110.296;2023-07-13T06:01:57;0.82;;;0.82;;
63874;SDS011;51595;24.180;-110.296;2023-07-13T06:04:24;6.47;;;1.02;;
63874;SDS011;51595;24.180;-110.296;2023-07-13T06:06:50;2.45;;;1.27;;
63874;SDS011;51595;24.180;-110.296;2023-07-13T06:09:17;1.73;;;0.85;;
63874;SDS011;51595;24.180;-110.296;2023-07-13T06:11:43;1.30;;;0.90;;
63874;SDS011;51595;24.180;-110.296;2023-07-13T06:14:10;0.93;;;0.80;;
63874;SDS011;51595;24.180;-110.296;2023-07-13T06:16:36;1.77;;;1.25;;
63874;SDS011;51595;24.180;-110.296;2023-07-13T06:19:05;2.75;;;1.42;;
63874;SDS011;51595;24.180;-110.296;2023-07-13T06:21:33;2.00;;;1.30;;
63874;SDS011;51595;24.180;-110.296;2023-07-13T06:23:59;1.42;;;0.85;;
63874;SDS011;51595;24.180;-110.296;2023-07-13T06:26:26;1.20;;;0.95;;
63874;SDS011;51595;24.180;-110.296;2023-07-13T06:28:53;2.50;;;1.58;;
63874;SDS011;51595;24.180;-110.296;2023-07-13T06:31:19;2.83;;;1.52;;
63874;SDS011;51595;24.180;-110.296;2023-07-13T06:33:46;1.00;;;0.77;;
63874;SDS011;51595;24.180;-110.296;2023-07-13T06:36:12;2.08;;;1.58;;
63874;SDS011;51595;24.180;-110.296;2023-07-13T06:38:39;1.50;;;1.23;;
63874;SDS011;51595;24.180;-110.296;2023-07-13T06:41:06;1.73;;;1.40;;
63874;SDS011;51595;24.180;-110.296;2023-07-13T06:43:33;1.20;;;0.93;;
63874;SDS011;51595;24.180;-110.296;2023-07-13T06:46:01;2.30;;;1.02;;
63874;SDS011;51595;24.180;-110.296;2023-07-13T06:48:29;1.50;;;1.17;;
63874;SDS011;51595;24.180;-110.296;2023-07-13T06:50:56;1.00;;;0.90;;
63874;SDS011;51595;24.180;-110.296;2023-07-13T06:53:22;4.10;;;1.77;;
63874;SDS011;51595;24.180;-110.296;2023-07-13T06:55:49;1.77;;;1.25;;
63874;SDS011;51595;24.180;-110.296;2023-07-13T06:58:19;1.95;;;1.35;;
63874;SDS011;51595;24.180;-110.296;2023-07-13T07:00:46;2.00;;;1.20;;
63874;SDS011;51595;24.180;-110.296;2023-07-13T07:03:15;5.63;;;1.15;;
63874;SDS011;51595;24.180;-110.296;2023-07-13T07:05:41;1.35;;;0.90;;
63874;SDS011;51595;24.180;-110.296;2023-07-13T07:08:08;1.67;;;1.10;;
63874;SDS011;51595;24.180;-110.296;2023-07-13T07:10:35;2.60;;;1.20;;
63874;SDS011;51595;24.180;-110.296;2023-07-13T07:13:02;6.45;;;0.95;;
63874;SDS011;51595;24.180;-110.296;2023-07-13T07:15:28;0.98;;;0.73;;
63874;SDS011;51595;24.180;-110.296;2023-07-13T07:17:55;1.23;;;0.88;;
63874;SDS011;51595;24.180;-110.296;2023-07-13T07:20:21;1.63;;;1.10;;
63874;SDS011;51595;24.180;-110.296;2023-07-13T07:22:48;1.52;;;0.75;;
63874;SDS011;51595;24.180;-110.296;2023-07-13T07:25:15;4.38;;;1.15;;
63874;SDS011;51595;24.180;-110.296;2023-07-13T07:27:42;2.58;;;1.42;;
63874;SDS011;51595;24.180;-110.296;2023-07-13T07:30:09;1.90;;;1.30;;
63874;SDS011;51595;24.180;-110.296;2023-07-13T07:32:36;4.90;;;1.45;;
63874;SDS011;51595;24.180;-110.296;2023-07-13T07:35:03;4.97;;;1.58;;
63874;SDS011;51595;24.180;-110.296;2023-07-13T07:37:30;4.10;;;1.27;;
63874;SDS011;51595;24.180;-110.296;2023-07-13T07:39:56;3.70;;;1.60;;
63874;SDS011;51595;24.180;-110.296;2023-07-13T07:42:23;1.98;;;1.50;;
63874;SDS011;51595;24.180;-110.296;2023-07-13T07:44:49;1.33;;;0.90;;
63874;SDS011;51595;24.180;-110.296;2023-07-13T07:47:16;1.13;;;0.88;;
63874;SDS011;51595;24.180;-110.296;2023-07-13T07:49:42;1.77;;;1.13;;
63874;SDS011;51595;24.180;-110.296;2023-07-13T07:52:09;2.63;;;1.25;;
63874;SDS011;51595;24.180;-110.296;2023-07-13T07:54:35;2.58;;;1.30;;
63874;SDS011;51595;24.180;-110.296;2023-07-13T07:57:02;3.42;;;1.48;;
63874;SDS011;51595;24.180;-110.296;2023-07-13T07:59:28;4.03;;;1.30;;
63874;SDS011;51595;24.180;-110.296;2023-07-13T08:01:56;2.03;;;1.10;;
63874;SDS011;51595;24.180;-110.296;2023-07-13T08:04:23;3.55;;;0.95;;
63874;SDS011;51595;24.180;-110.296;2023-07-13T08:06:49;1.42;;;0.73;;
63874;SDS011;51595;24.180;-110.296;2023-07-13T08:09:16;2.00;;;0.95;;
63874;SDS011;51595;24.180;-110.296;2023-07-13T08:11:42;1.98;;;1.20;;
63874;SDS011;51595;24.180;-110.296;2023-07-13T08:14:08;1.17;;;1.08;;
63874;SDS011;51595;24.180;-110.296;2023-07-13T08:16:35;1.13;;;0.80;;
63874;SDS011;51595;24.180;-110.296;2023-07-13T08:19:01;1.20;;;1.10;;
63874;SDS011;51595;24.180;-110.296;2023-07-13T08:21:29;1.85;;;1.40;;
63874;SDS011;51595;24.180;-110.296;2023-07-13T08:23:57;1.23;;;1.13;;
63874;SDS011;51595;24.180;-110.296;2023-07-13T08:26:24;1.35;;;1.25;;
63874;SDS011;51595;24.180;-110.296;2023-07-13T08:28:50;3.35;;;1.10;;
63874;SDS011;51595;24.180;-110.296;2023-07-13T08:31:16;1.73;;;1.25;;
63874;SDS011;51595;24.180;-110.296;2023-07-13T08:33:43;1.52;;;1.05;;
63874;SDS011;51595;24.180;-110.296;2023-07-13T08:36:10;1.92;;;1.25;;
63874;SDS011;51595;24.180;-110.296;2023-07-13T08:38:36;4.90;;;1.20;;
63874;SDS011;51595;24.180;-110.296;2023-07-13T08:41:09;1.95;;;1.33;;
63874;SDS011;51595;24.180;-110.296;2023-07-13T08:43:41;1.38;;;1.13;;
63874;SDS011;51595;24.180;-110.296;2023-07-13T08:46:19;1.73;;;1.00;;
63874;SDS011;51595;24.180;-110.296;2023-07-13T08:48:49;3.67;;;1.30;;
63874;SDS011;51595;24.180;-110.296;2023-07-13T08:51:36;0.85;;;0.75;;
63874;SDS011;51595;24.180;-110.296;2023-07-13T08:54:11;2.42;;;0.98;;
63874;SDS011;51595;24.180;-110.296;2023-07-13T08:56:43;1.00;;;0.90;;
63874;SDS011;51595;24.180;-110.296;2023-07-13T08:59:16;1.45;;;0.80;;
63874;SDS011;51595;24.180;-110.296;2023-07-13T09:04:37;0.98;;;0.82;;
63874;SDS011;51595;24.180;-110.296;2023-07-13T09:09:50;2.03;;;0.93;;
63874;SDS011;51595;24.180;-110.296;2023-07-13T09:14:58;2.08;;;1.02;;
63874;SDS011;51595;24.180;-110.296;2023-07-13T09:17:34;2.05;;;0.90;;
63874;SDS011;51595;24.180;-110.296;2023-07-13T09:20:15;0.95;;;0.90;;
63874;SDS011;51595;24.180;-110.296;2023-07-13T09:22:50;2.60;;;1.15;;
63874;SDS011;51595;24.180;-110.296;2023-07-13T09:28:24;1.30;;;0.73;;
63874;SDS011;51595;24.180;-110.296;2023-07-13T09:33:28;1.02;;;0.82;;
63874;SDS011;51595;24.180;-110.296;2023-07-13T09:35:56;3.20;;;1.00;;
63874;SDS011;51595;24.180;-110.296;2023-07-13T09:38:24;5.15;;;0.95;;
63874;SDS011;51595;24.180;-110.296;2023-07-13T09:44:16;1.00;;;0.90;;
63874;SDS011;51595;24.180;-110.296;2023-07-13T09:46:53;1.73;;;0.95;;
63874;SDS011;51595;24.180;-110.296;2023-07-13T09:49:24;0.98;;;0.88;;
63874;SDS011;51595;24.180;-110.296;2023-07-13T09:52:10;1.35;;;0.90;;
63874;SDS011;51595;24.180;-110.296;2023-07-13T09:54:39;0.73;;;0.73;;
63874;SDS011;51595;24.180;-110.296;2023-07-13T09:57:13;1.15;;;1.05;;
63874;SDS011;51595;24.180;-110.296;2023-07-13T09:59:46;0.95;;;0.90;;
63874;SDS011;51595;24.180;-110.296;2023-07-13T10:05:11;2.97;;;1.25;;
63874;SDS011;51595;24.180;-110.296;2023-07-13T10:07:44;0.80;;;0.80;;
63874;SDS011;51595;24.180;-110.296;2023-07-13T10:10:16;5.43;;;1.20;;
63874;SDS011;51595;24.180;-110.296;2023-07-13T10:12:46;1.52;;;0.80;;
63874;SDS011;51595;24.180;-110.296;2023-07-13T10:15:18;2.03;;;1.10;;
63874;SDS011;51595;24.180;-110.296;2023-07-13T10:17:47;1.60;;;0.60;;
63874;SDS011;51595;24.180;-110.296;2023-07-13T10:20:15;1.05;;;0.93;;
63874;SDS011;51595;24.180;-110.296;2023-07-13T10:22:44;1.23;;;0.98;;
63874;SDS011;51595;24.180;-110.296;2023-07-13T10:25:20;0.88;;;0.77;;
63874;SDS011;51595;24.180;-110.296;2023-07-13T10:27:52;3.75;;;1.23;;
63874;SDS011;51595;24.180;-110.296;2023-07-13T10:32:57;1.05;;;0.98;;
63874;SDS011;51595;24.180;-110.296;2023-07-13T10:35:27;3.42;;;0.98;;
63874;SDS011;51595;24.180;-110.296;2023-07-13T10:38:04;2.53;;;0.73;;
63874;SDS011;51595;24.180;-110.296;2023-07-13T10:40:39;2.90;;;1.17;;
63874;SDS011;51595;24.180;-110.296;2023-07-13T10:43:25;3.38;;;1.30;;
63874;SDS011;51595;24.180;-110.296;2023-07-13T10:45:56;3.15;;;0.98;;
63874;SDS011;51595;24.180;-110.296;2023-07-13T10:48:25;1.00;;;0.73;;
63874;SDS011;51595;24.180;-110.296;2023-07-13T10:50:52;1.10;;;0.80;;
63874;SDS011;51595;24.180;-110.296;2023-07-13T10:53:27;2.15;;;1.25;;
63874;SDS011;51595;24.180;-110.296;2023-07-13T10:56:00;2.83;;;1.17;;
63874;SDS011;51595;24.180;-110.296;2023-07-13T11:03:35;2.35;;;0.80;;
63874;SDS011;51595;24.180;-110.296;2023-07-13T11:06:29;1.83;;;0.95;;
63874;SDS011;51595;24.180;-110.296;2023-07-13T11:12:00;1.45;;;0.90;;
63874;SDS011;51595;24.180;-110.296;2023-07-13T11:14:36;2.83;;;1.00;;
63874;SDS011;51595;24.180;-110.296;2023-07-13T11:17:24;2.00;;;1.33;;
63874;SDS011;51595;24.180;-110.296;2023-07-13T11:20:40;0.90;;;0.75;;
63874;SDS011;51595;24.180;-110.296;2023-07-13T11:25:38;2.15;;;1.17;;
63874;SDS011;51595;24.180;-110.296;2023-07-13T11:30:47;1.17;;;0.85;;
63874;SDS011;51595;24.180;-110.296;2023-07-13T11:33:22;1.35;;;0.82;;
63874;SDS011;51595;24.180;-110.296;2023-07-13T11:35:53;3.67;;;1.13;;
63874;SDS011;51595;24.180;-110.296;2023-07-13T11:41:18;1.55;;;0.80;;
63874;SDS011;51595;24.180;-110.296;2023-07-13T11:43:52;1.27;;;0.98;;
63874;SDS011;51595;24.180;-110.296;2023-07-13T11:46:21;1.23;;;0.93;;
63874;SDS011;51595;24.180;-110.296;2023-07-13T11:48:49;0.85;;;0.73;;
63874;SDS011;51595;24.180;-110.296;2023-07-13T11:51:19;0.57;;;0.50;;
63874;SDS011;51595;24.180;-110.296;2023-07-13T11:53:53;0.90;;;0.90;;
63874;SDS011;51595;24.180;-110.296;2023-07-13T11:56:22;1.13;;;0.73;;
63874;SDS011;51595;24.180;-110.296;2023-07-13T11:58:51;1.20;;;0.70;;
63874;SDS011;51595;24.180;-110.296;2023-07-13T12:01:24;2.70;;;0.93;;
63874;SDS011;51595;24.180;-110.296;2023-07-13T12:03:58;3.20;;;1.27;;
63874;SDS011;51595;24.180;-110.296;2023-07-13T12:06:35;1.73;;;0.90;;
63874;SDS011;51595;24.180;-110.296;2023-07-13T12:09:14;1.00;;;0.70;;
63874;SDS011;51595;24.180;-110.296;2023-07-13T12:11:45;3.15;;;0.75;;
63874;SDS011;51595;24.180;-110.296;2023-07-13T12:14:13;1.27;;;0.85;;
63874;SDS011;51595;24.180;-110.296;2023-07-13T12:16:41;2.28;;;0.80;;
63874;SDS011;51595;24.180;-110.296;2023-07-13T12:19:14;0.85;;;0.70;;
63874;SDS011;51595;24.180;-110.296;2023-07-13T12:21:55;2.42;;;1.00;;
63874;SDS011;51595;24.180;-110.296;2023-07-13T12:24:28;1.08;;;0.80;;
63874;SDS011;51595;24.180;-110.296;2023-07-13T12:26:58;1.27;;;0.85;;
63874;SDS011;51595;24.180;-110.296;2023-07-13T12:29:26;1.55;;;0.93;;
63874;SDS011;51595;24.180;-110.296;2023-07-13T12:31:53;3.15;;;0.70;;
63874;SDS011;51595;24.180;-110.296;2023-07-13T12:34:23;3.97;;;1.00;;
63874;SDS011;51595;24.180;-110.296;2023-07-13T12:37:01;1.38;;;1.08;;
63874;SDS011;51595;24.180;-110.296;2023-07-13T12:39:35;2.97;;;1.20;;
63874;SDS011;51595;24.180;-110.296;2023-07-13T12:42:23;1.30;;;0.90;;
63874;SDS011;51595;24.180;-110.296;2023-07-13T12:44:58;1.13;;;0.85;;
63874;SDS011;51595;24.180;-110.296;2023-07-13T12:47:58;1.63;;;0.95;;
63874;SDS011;51595;24.180;-110.296;2023-07-13T12:50:37;3.25;;;1.10;;
63874;SDS011;51595;24.180;-110.296;2023-07-13T12:53:12;1.13;;;1.05;;
63874;SDS011;51595;24.180;-110.296;2023-07-13T12:55:49;1.83;;;1.02;;
63874;SDS011;51595;24.180;-110.296;2023-07-13T13:00:55;2.75;;;1.17;;
63874;SDS011;51595;24.180;-110.296;2023-07-13T13:03:33;1.27;;;0.85;;
63874;SDS011;51595;24.180;-110.296;2023-07-13T13:06:03;1.75;;;1.02;;
63874;SDS011;51595;24.180;-110.296;2023-07-13T13:08:33;6.18;;;1.88;;
63874;SDS011;51595;24.180;-110.296;2023-07-13T13:11:01;1.75;;;1.10;;
63874;SDS011;51595;24.180;-110.296;2023-07-13T13:13:27;2.17;;;0.90;;
63874;SDS011;51595;24.180;-110.296;2023-07-13T13:15:54;2.13;;;1.40;;
63874;SDS011;51595;24.180;-110.296;2023-07-13T13:18:21;1.17;;;0.80;;
63874;SDS011;51595;24.180;-110.296;2023-07-13T13:20:49;1.90;;;1.13;;
63874;SDS011;51595;24.180;-110.296;2023-07-13T13:23:18;2.90;;;1.27;;
63874;SDS011;51595;24.180;-110.296;2023-07-13T13:25:46;2.40;;;1.38;;
63874;SDS011;51595;24.180;-110.296;2023-07-13T13:28:17;1.08;;;0.80;;
63874;SDS011;51595;24.180;-110.296;2023-07-13T13:30:45;1.48;;;0.88;;
63874;SDS011;51595;24.180;-110.296;2023-07-13T13:33:14;1.88;;;1.10;;
63874;SDS011;51595;24.180;-110.296;2023-07-13T13:35:42;4.35;;;0.90;;
63874;SDS011;51595;24.180;-110.296;2023-07-13T13:38:16;1.38;;;1.10;;
63874;SDS011;51595;24.180;-110.296;2023-07-13T13:40:45;3.67;;;1.10;;
63874;SDS011;51595;24.180;-110.296;2023-07-13T13:43:16;3.08;;;1.13;;
63874;SDS011;51595;24.180;-110.296;2023-07-13T13:45:57;1.20;;;1.00;;
63874;SDS011;51595;24.180;-110.296;2023-07-13T13:48:36;1.07;;;0.97;;
63874;SDS011;51595;24.180;-110.296;2023-07-13T13:51:06;2.05;;;0.82;;
63874;SDS011;51595;24.180;-110.296;2023-07-13T13:53:40;0.80;;;0.80;;
63874;SDS011;51595;24.180;-110.296;2023-07-13T13:56:07;0.75;;;0.75;;
63874;SDS011;51595;24.180;-110.296;2023-07-13T13:58:33;1.63;;;0.98;;
63874;SDS011;51595;24.180;-110.296;2023-07-13T14:01:00;1.40;;;0.95;;
63874;SDS011;51595;24.180;-110.296;2023-07-13T14:03:26;1.65;;;1.05;;
63874;SDS011;51595;24.180;-110.296;2023-07-13T14:05:53;1.80;;;0.85;;
63874;SDS011;51595;24.180;-110.296;2023-07-13T14:08:22;1.30;;;1.05;;
63874;SDS011;51595;24.180;-110.296;2023-07-13T14:10:49;2.80;;;1.30;;
63874;SDS011;51595;24.180;-110.296;2023-07-13T14:13:20;2.95;;;1.15;;
63874;SDS011;51595;24.180;-110.296;2023-07-13T14:15:53;2.70;;;0.82;;
63874;SDS011;51595;24.180;-110.296;2023-07-13T14:18:20;2.85;;;1.10;;
63874;SDS011;51595;24.180;-110.296;2023-07-13T14:20:47;1.70;;;0.85;;
63874;SDS011;51595;24.180;-110.296;2023-07-13T14:23:15;1.85;;;1.20;;
63874;SDS011;51595;24.180;-110.296;2023-07-13T14:25:44;2.63;;;1.33;;
63874;SDS011;51595;24.180;-110.296;2023-07-13T14:28:22;4.88;;;1.48;;
63874;SDS011;51595;24.180;-110.296;2023-07-13T14:30:50;1.63;;;1.10;;
63874;SDS011;51595;24.180;-110.296;2023-07-13T14:33:22;4.72;;;1.42;;
63874;SDS011;51595;24.180;-110.296;2023-07-13T14:35:49;2.25;;;1.13;;
63874;SDS011;51595;24.180;-110.296;2023-07-13T14:38:17;12.73;;;1.83;;
63874;SDS011;51595;24.180;-110.296;2023-07-13T14:40:45;1.75;;;0.90;;
63874;SDS011;51595;24.180;-110.296;2023-07-13T14:43:15;1.23;;;1.10;;
63874;SDS011;51595;24.180;-110.296;2023-07-13T14:45:44;2.45;;;1.00;;
63874;SDS011;51595;24.180;-110.296;2023-07-13T14:50:45;2.25;;;1.60;;
63874;SDS011;51595;24.180;-110.296;2023-07-13T14:53:12;6.20;;;1.27;;
63874;SDS011;51595;24.180;-110.296;2023-07-13T14:55:39;9.93;;;0.80;;
63874;SDS011;51595;24.180;-110.296;2023-07-13T14:58:07;5.30;;;1.17;;
63874;SDS011;51595;24.180;-110.296;2023-07-13T15:00:38;3.50;;;1.30;;
63874;SDS011;51595;24.180;-110.296;2023-07-13T15:03:05;3.05;;;1.08;;
63874;SDS011;51595;24.180;-110.296;2023-07-13T15:05:48;1.13;;;0.93;;
63874;SDS011;51595;24.180;-110.296;2023-07-13T15:08:16;1.50;;;1.13;;
63874;SDS011;51595;24.180;-110.296;2023-07-13T15:10:42;2.53;;;1.30;;
63874;SDS011;51595;24.180;-110.296;2023-07-13T15:13:13;1.52;;;1.10;;
63874;SDS011;51595;24.180;-110.296;2023-07-13T15:15:40;10.68;;;1.80;;
63874;SDS011;51595;24.180;-110.296;2023-07-13T15:18:11;3.08;;;1.30;;
63874;SDS011;51595;24.180;-110.296;2023-07-13T15:20:38;1.75;;;0.95;;
63874;SDS011;51595;24.180;-110.296;2023-07-13T15:23:05;3.75;;;1.67;;
63874;SDS011;51595;24.180;-110.296;2023-07-13T15:25:32;3.65;;;1.48;;
63874;SDS011;51595;24.180;-110.296;2023-07-13T15:28:00;3.22;;;1.20;;
63874;SDS011;51595;24.180;-110.296;2023-07-13T15:30:28;2.30;;;0.98;;
63874;SDS011;51595;24.180;-110.296;2023-07-13T15:32:57;3.95;;;0.77;;
63874;SDS011;51595;24.180;-110.296;2023-07-13T15:35:27;3.97;;;1.25;;
63874;SDS011;51595;24.180;-110.296;2023-07-13T15:37:54;0.88;;;0.88;;
63874;SDS011;51595;24.180;-110.296;2023-07-13T15:40:22;0.80;;;0.75;;
63874;SDS011;51595;24.180;-110.296;2023-07-13T15:42:50;2.40;;;1.13;;
63874;SDS011;51595;24.180;-110.296;2023-07-13T15:45:21;2.83;;;1.13;;
63874;SDS011;51595;24.180;-110.296;2023-07-13T15:47:54;1.67;;;1.25;;
63874;SDS011;51595;24.180;-110.296;2023-07-13T15:50:22;2.47;;;1.05;;
63874;SDS011;51595;24.180;-110.296;2023-07-13T15:52:53;1.58;;;1.10;;
63874;SDS011;51595;24.180;-110.296;2023-07-13T15:55:22;2.22;;;1.10;;
63874;SDS011;51595;24.180;-110.296;2023-07-13T15:57:50;2.28;;;0.98;;
63874;SDS011;51595;24.180;-110.296;2023-07-13T16:02:49;4.40;;;1.30;;
63874;SDS011;51595;24.180;-110.296;2023-07-13T16:05:17;2.72;;;0.88;;
63874;SDS011;51595;24.180;-110.296;2023-07-13T16:07:46;2.33;;;1.02;;
63874;SDS011;51595;24.180;-110.296;2023-07-13T16:10:24;1.35;;;0.60;;
63874;SDS011;51595;24.180;-110.296;2023-07-13T16:12:53;1.45;;;1.25;;
63874;SDS011;51595;24.180;-110.296;2023-07-13T16:15:20;2.47;;;0.90;;
63874;SDS011;51595;24.180;-110.296;2023-07-13T16:17:47;4.85;;;1.00;;
63874;SDS011;51595;24.180;-110.296;2023-07-13T16:20:17;1.65;;;1.25;;
63874;SDS011;51595;24.180;-110.296;2023-07-13T16:22:50;1.25;;;1.02;;
63874;SDS011;51595;24.180;-110.296;2023-07-13T16:25:26;1.60;;;0.95;;
63874;SDS011;51595;24.180;-110.296;2023-07-13T16:27:56;1.20;;;0.80;;
63874;SDS011;51595;24.180;-110.296;2023-07-13T16:30:25;1.50;;;0.85;;
63874;SDS011;51595;24.180;-110.296;2023-07-13T16:32:58;2.05;;;1.00;;
63874;SDS011;51595;24.180;-110.296;2023-07-13T16:35:34;5.30;;;1.20;;
63874;SDS011;51595;24.180;-110.296;2023-07-13T16:38:20;1.73;;;0.95;;
63874;SDS011;51595;24.180;-110.296;2023-07-13T16:40:49;8.48;;;1.65;;
63874;SDS011;51595;24.180;-110.296;2023-07-13T16:43:18;1.45;;;1.15;;
63874;SDS011;51595;24.180;-110.296;2023-07-13T16:45:46;1.92;;;1.27;;
63874;SDS011;51595;24.180;-110.296;2023-07-13T16:48:16;1.35;;;0.75;;
63874;SDS011;51595;24.180;-110.296;2023-07-13T16:50:45;4.88;;;1.50;;
63874;SDS011;51595;24.180;-110.296;2023-07-13T16:53:21;2.35;;;1.00;;
63874;SDS011;51595;24.180;-110.296;2023-07-13T16:55:50;2.17;;;0.95;;
63874;SDS011;51595;24.180;-110.296;2023-07-13T16:58:21;3.90;;;1.30;;
63874;SDS011;51595;24.180;-110.296;2023-07-13T17:00:51;6.97;;;1.40;;
63874;SDS011;51595;24.180;-110.296;2023-07-13T17:03:18;1.73;;;0.93;;
63874;SDS011;51595;24.180;-110.296;2023-07-13T17:05:46;1.58;;;0.93;;
63874;SDS011;51595;24.180;-110.296;2023-07-13T17:08:19;0.73;;;0.73;;
63874;SDS011;51595;24.180;-110.296;2023-07-13T17:10:53;4.35;;;1.17;;
63874;SDS011;51595;24.180;-110.296;2023-07-13T17:13:25;0.70;;;0.60;;
63874;SDS011;51595;24.180;-110.296;2023-07-13T17:15:54;1.80;;;0.90;;
63874;SDS011;51595;24.180;-110.296;2023-07-13T17:18:22;3.30;;;0.90;;
63874;SDS011;51595;24.180;-110.296;2023-07-13T17:21:03;1.05;;;0.85;;
63874;SDS011;51595;24.180;-110.296;2023-07-13T17:23:32;1.90;;;0.98;;
63874;SDS011;51595;24.180;-110.296;2023-07-13T17:25:59;0.77;;;0.77;;
63874;SDS011;51595;24.180;-110.296;2023-07-13T17:28:26;1.05;;;0.95;;
63874;SDS011;51595;24.180;-110.296;2023-07-13T17:30:55;4.18;;;0.95;;
63874;SDS011;51595;24.180;-110.296;2023-07-13T17:33:28;2.33;;;1.00;;
63874;SDS011;51595;24.180;-110.296;2023-07-13T17:36:18;1.08;;;0.80;;
63874;SDS011;51595;24.180;-110.296;2023-07-13T17:38:47;1.23;;;1.00;;
63874;SDS011;51595;24.180;-110.296;2023-07-13T17:41:22;9.82;;;1.23;;
63874;SDS011;51595;24.180;-110.296;2023-07-13T17:43:49;1.17;;;1.02;;
63874;SDS011;51595;24.180;-110.296;2023-07-13T17:46:19;2.03;;;0.90;;
63874;SDS011;51595;24.180;-110.296;2023-07-13T17:48:53;3.60;;;0.98;;
63874;SDS011;51595;24.180;-110.296;2023-07-13T17:51:20;0.82;;;0.80;;
63874;SDS011;51595;24.180;-110.296;2023-07-13T17:53:53;3.00;;;1.08;;
63874;SDS011;51595;24.180;-110.296;2023-07-13T17:56:21;1.05;;;0.73;;
63874;SDS011;51595;24.180;-110.296;2023-07-13T17:58:51;1.10;;;0.90;;
63874;SDS011;51595;24.180;-110.296;2023-07-13T18:01:19;5.15;;;1.02;;
63874;SDS011;51595;24.180;-110.296;2023-07-13T18:03:51;5.50;;;1.05;;
63874;SDS011;51595;24.180;-110.296;2023-07-13T18:06:25;10.07;;;1.33;;
63874;SDS011;51595;24.180;-110.296;2023-07-13T18:08:55;1.88;;;0.80;;
63874;SDS011;51595;24.180;-110.296;2023-07-13T18:11:24;1.30;;;0.65;;
63874;SDS011;51595;24.180;-110.296;2023-07-13T18:13:51;0.70;;;0.70;;
63874;SDS011;51595;24.180;-110.296;2023-07-13T18:18:52;5.03;;;0.90;;
63874;SDS011;51595;24.180;-110.296;2023-07-13T18:21:21;3.40;;;0.80;;